Sadiq Abubakar III International Airport

DNSO · Sokoto, Nigeria

Storia di METAR DNSO · Sadiq Abubakar III International Airport

Di seguito sono riportati i METAR degli ultimi giorni. Seleziona un anno per sfogliare i METAR più vecchi, dall'anno 2007 in poi.

9 dicembre 2022

Tempo Codice Tempo metereologico Temp. Vista Base nuvolosa Vento METAR/SPECI
15:00
V
34 °C 10 km+ - 060° 060° 17 kt METAR DNSO 091400Z 06017KT CAVOK 34/06 Q1013
12:00
V
32 °C 10 km+ - 060° 060° 2 kt METAR DNSO 091100Z 06002KT CAVOK 32/04 Q1016
11:00
V
30 °C 10 km+ - 080° 080° 20 kt METAR DNSO 091000Z 08020KT CAVOK 30/03 Q1017

Noi e le terze parti seguiamo il tuo comportamento su internet con i cookie. Se continui, riteniamo che tu sia d'accordo con la nostra Politica sui cookie.